createdAt,value
2023-03-18T00:01:12.441Z,-2.08
2023-03-18T00:03:40.643Z,-2.06
2023-03-18T00:06:14.411Z,-2.02
2023-03-18T00:08:43.498Z,-2.00
2023-03-18T00:11:13.092Z,-1.97
2023-03-18T00:13:42.561Z,-1.93
2023-03-18T00:16:12.679Z,-1.89
2023-03-18T00:18:41.855Z,-1.85
2023-03-18T00:21:10.135Z,-1.90
2023-03-18T00:23:38.892Z,-1.84
2023-03-18T00:26:09.125Z,-1.84
2023-03-18T00:28:40.040Z,-1.82
2023-03-18T00:31:10.821Z,-1.84
2023-03-18T00:33:40.945Z,-1.88
2023-03-18T00:36:13.953Z,-1.93
2023-03-18T00:38:47.076Z,-1.97
2023-03-18T00:41:16.254Z,-2.01
2023-03-18T00:43:52.786Z,-2.03
2023-03-18T00:46:33.332Z,-2.06
2023-03-18T00:49:04.914Z,-2.12
2023-03-18T00:51:36.532Z,-2.18
2023-03-18T00:54:08.061Z,-2.20
2023-03-18T00:56:39.902Z,-2.25
2023-03-18T00:59:08.930Z,-2.32
2023-03-18T01:01:37.673Z,-2.38
2023-03-18T01:04:07.074Z,-2.45
2023-03-18T01:06:37.608Z,-2.51
2023-03-18T01:09:09.107Z,-2.58
2023-03-18T01:11:38.057Z,-2.64
2023-03-18T01:14:06.440Z,-2.70
2023-03-18T01:16:34.816Z,-2.76
2023-03-18T01:19:04.486Z,-2.82
2023-03-18T01:21:33.802Z,-2.86
2023-03-18T01:24:02.404Z,-2.90
2023-03-18T01:26:31.027Z,-2.92
2023-03-18T01:29:00.890Z,-2.95
2023-03-18T01:31:29.983Z,-2.97
2023-03-18T01:34:02.284Z,-2.96
2023-03-18T01:36:36.404Z,-2.93
2023-03-18T01:39:08.979Z,-2.88
2023-03-18T01:41:37.865Z,-2.83
2023-03-18T01:44:14.710Z,-2.78
2023-03-18T01:46:45.643Z,-2.71
2023-03-18T01:49:20.770Z,-2.64
2023-03-18T01:52:13.063Z,-2.60
2023-03-18T01:54:59.080Z,-2.55
2023-03-18T01:57:29.173Z,-2.49
2023-03-18T01:59:59.045Z,-2.45
2023-03-18T02:02:28.751Z,-2.45
2023-03-18T02:05:02.040Z,-2.47
2023-03-18T02:07:35.826Z,-2.52
2023-03-18T02:10:11.807Z,-2.56
2023-03-18T02:12:49.199Z,-2.61
2023-03-18T02:15:22.800Z,-2.66
2023-03-18T02:18:02.871Z,-2.72
2023-03-18T02:20:40.823Z,-2.76
2023-03-18T02:23:48.253Z,-2.80
2023-03-18T02:26:48.420Z,-2.86
2023-03-18T02:29:19.519Z,-2.92
2023-03-18T02:31:55.082Z,-2.98
2023-03-18T02:34:25.724Z,-3.02
2023-03-18T02:36:57.444Z,-3.05
2023-03-18T02:39:26.668Z,-3.07
2023-03-18T02:41:56.639Z,-3.09
2023-03-18T02:44:25.006Z,-3.11
2023-03-18T02:47:25.145Z,-3.16
2023-03-18T02:49:53.969Z,-3.23
2023-03-18T02:52:22.518Z,-3.28
2023-03-18T02:54:51.669Z,-3.29
2023-03-18T02:57:19.802Z,-3.31
2023-03-18T02:59:47.985Z,-3.33
2023-03-18T03:02:16.863Z,-3.33
2023-03-18T03:04:45.378Z,-3.32
2023-03-18T03:07:16.615Z,-3.32
2023-03-18T03:09:47.906Z,-3.30
2023-03-18T03:12:16.269Z,-3.26
2023-03-18T03:14:49.197Z,-3.23
2023-03-18T03:17:17.512Z,-3.20
2023-03-18T03:19:46.742Z,-3.19
2023-03-18T03:22:17.605Z,-3.18
2023-03-18T03:24:47.746Z,-3.15
2023-03-18T03:27:15.793Z,-3.11
2023-03-18T03:29:43.772Z,-3.07
2023-03-18T03:32:12.076Z,-3.03
2023-03-18T03:34:40.086Z,-3.00
2023-03-18T03:37:08.229Z,-3.04
2023-03-18T03:39:36.343Z,-3.07
2023-03-18T03:42:04.298Z,-3.09
2023-03-18T03:44:32.306Z,-3.11
2023-03-18T03:47:00.215Z,-3.13
2023-03-18T03:49:28.525Z,-3.18
2023-03-18T03:51:57.380Z,-3.24
2023-03-18T03:54:26.025Z,-3.31
2023-03-18T03:56:54.570Z,-3.39
2023-03-18T03:59:22.539Z,-3.44
2023-03-18T04:02:14.012Z,-3.49
2023-03-18T04:04:42.729Z,-3.53
2023-03-18T04:07:16.954Z,-3.56
2023-03-18T04:09:45.696Z,-3.60
2023-03-18T04:12:14.336Z,-3.64
2023-03-18T04:14:42.330Z,-3.69
2023-03-18T04:17:11.642Z,-3.75
2023-03-18T04:19:40.489Z,-3.78
2023-03-18T04:22:08.644Z,-3.83
2023-03-18T04:24:36.839Z,-3.88
2023-03-18T04:27:05.905Z,-3.91
2023-03-18T04:29:34.291Z,-3.92
2023-03-18T04:32:03.206Z,-3.95
2023-03-18T04:34:32.119Z,-3.96
2023-03-18T04:37:01.559Z,-3.97
2023-03-18T04:39:30.592Z,-3.96
2023-03-18T04:41:58.676Z,-3.92
2023-03-18T04:44:26.911Z,-3.87
2023-03-18T04:46:55.258Z,-3.82
2023-03-18T04:49:24.688Z,-3.74
2023-03-18T04:51:55.016Z,-3.66
2023-03-18T04:54:28.412Z,-3.58
2023-03-18T04:56:58.480Z,-3.50
2023-03-18T04:59:28.133Z,-3.40
2023-03-18T05:01:57.097Z,-3.23
2023-03-18T05:04:26.102Z,-2.80
2023-03-18T05:06:54.896Z,-2.28
2023-03-18T05:09:27.548Z,-2.17
2023-03-18T05:11:55.832Z,-2.11
2023-03-18T05:14:29.180Z,-1.70
2023-03-18T05:16:57.229Z,-0.98
2023-03-18T05:19:25.409Z,-0.36
2023-03-18T05:22:10.395Z,0.28
2023-03-18T05:24:39.652Z,0.89
2023-03-18T05:27:08.331Z,1.41
2023-03-18T05:29:40.414Z,1.88
2023-03-18T05:32:16.812Z,2.26
2023-03-18T05:34:45.617Z,2.52
2023-03-18T05:37:16.100Z,2.87
2023-03-18T05:39:49.854Z,3.20
2023-03-18T05:42:19.792Z,3.54
2023-03-18T05:44:48.534Z,3.85
2023-03-18T05:47:18.706Z,3.99
2023-03-18T05:50:07.685Z,3.89
2023-03-18T05:52:38.370Z,3.71
2023-03-18T05:55:13.929Z,3.42
2023-03-18T05:57:43.322Z,3.20
2023-03-18T06:00:13.605Z,3.00
2023-03-18T06:02:46.394Z,2.93
2023-03-18T06:05:15.202Z,3.26
2023-03-18T06:07:43.688Z,3.87
2023-03-18T06:10:12.473Z,4.44
2023-03-18T06:12:44.818Z,4.81
2023-03-18T06:15:13.864Z,5.13
2023-03-18T06:17:42.158Z,5.29
2023-03-18T06:20:14.761Z,5.38
2023-03-18T06:22:43.905Z,5.37
2023-03-18T06:25:11.931Z,5.42
2023-03-18T06:27:40.240Z,5.48
2023-03-18T06:30:09.778Z,5.76
2023-03-18T06:32:38.573Z,6.05
2023-03-18T06:35:07.802Z,6.26
2023-03-18T06:37:39.291Z,6.43
2023-03-18T06:40:10.849Z,6.61
2023-03-18T06:42:39.573Z,6.61
2023-03-18T06:45:12.603Z,6.52
2023-03-18T06:47:48.115Z,6.36
2023-03-18T06:50:16.931Z,6.24
2023-03-18T06:52:45.976Z,6.30
2023-03-18T06:55:16.860Z,6.24
2023-03-18T06:57:46.868Z,6.18
2023-03-18T07:00:17.976Z,6.33
2023-03-18T07:02:46.336Z,6.59
2023-03-18T07:05:17.320Z,6.82
2023-03-18T07:07:46.319Z,7.07
2023-03-18T07:10:24.005Z,7.34
2023-03-18T07:12:53.411Z,7.54
2023-03-18T07:15:23.960Z,7.73
2023-03-18T07:17:53.943Z,7.86
2023-03-18T07:20:22.711Z,7.95
2023-03-18T07:22:51.873Z,8.12
2023-03-18T07:25:21.812Z,8.37
2023-03-18T07:27:52.450Z,8.54
2023-03-18T07:30:21.382Z,8.53
2023-03-18T07:32:50.112Z,8.56
2023-03-18T07:35:18.712Z,8.43
2023-03-18T07:37:46.810Z,8.51
2023-03-18T07:40:15.446Z,8.44
2023-03-18T07:42:43.675Z,8.26
2023-03-18T07:45:12.336Z,7.83
2023-03-18T07:47:40.627Z,7.94
2023-03-18T07:50:10.852Z,8.14
2023-03-18T07:52:38.719Z,8.18
2023-03-18T07:55:07.127Z,8.21
2023-03-18T07:57:35.726Z,8.34
2023-03-18T08:00:07.011Z,8.58
2023-03-18T08:02:42.405Z,8.79
2023-03-18T08:05:11.740Z,8.75
2023-03-18T08:07:39.933Z,8.82
2023-03-18T08:10:09.214Z,8.67
2023-03-18T08:12:51.710Z,8.50
2023-03-18T08:15:22.478Z,8.56
2023-03-18T08:17:52.741Z,8.48
2023-03-18T08:20:23.352Z,8.46
2023-03-18T08:22:51.620Z,8.51
2023-03-18T08:25:20.242Z,8.47
2023-03-18T08:27:48.323Z,8.40
2023-03-18T08:30:16.874Z,8.28
2023-03-18T08:32:45.126Z,8.18
2023-03-18T08:35:13.727Z,7.97
2023-03-18T08:37:41.772Z,7.93
2023-03-18T08:40:11.771Z,7.92
2023-03-18T08:42:40.016Z,7.90
2023-03-18T08:45:08.799Z,7.87
2023-03-18T08:47:36.871Z,7.84
2023-03-18T08:50:06.162Z,7.79
2023-03-18T08:52:34.319Z,7.81
2023-03-18T08:55:02.575Z,7.90
2023-03-18T08:57:32.100Z,7.93
2023-03-18T09:00:00.826Z,7.99
2023-03-18T09:02:29.142Z,8.04
2023-03-18T09:04:57.282Z,8.07
2023-03-18T09:07:25.929Z,8.05
2023-03-18T09:09:54.362Z,7.88
2023-03-18T09:12:22.761Z,7.83
2023-03-18T09:14:50.758Z,7.87
2023-03-18T09:17:18.896Z,7.97
2023-03-18T09:19:46.961Z,8.03
2023-03-18T09:22:15.073Z,8.03
2023-03-18T09:24:43.210Z,7.94
2023-03-18T09:27:11.563Z,7.90
2023-03-18T09:29:39.857Z,7.95
2023-03-18T09:32:08.758Z,7.92
2023-03-18T09:34:36.736Z,8.04
2023-03-18T09:37:04.989Z,8.17
2023-03-18T09:39:33.429Z,8.23
2023-03-18T09:42:20.372Z,8.32
2023-03-18T09:44:58.661Z,8.32
2023-03-18T09:47:32.951Z,8.40
2023-03-18T09:50:06.679Z,8.46
2023-03-18T09:52:44.272Z,8.46
2023-03-18T09:55:25.640Z,8.45
2023-03-18T09:57:58.751Z,8.45
2023-03-18T10:00:38.005Z,8.55
2023-03-18T10:03:14.592Z,8.63
2023-03-18T10:05:58.616Z,8.66
2023-03-18T10:08:40.396Z,8.73
2023-03-18T10:11:22.149Z,8.81
2023-03-18T10:14:17.699Z,8.77
2023-03-18T10:17:02.070Z,8.76
2023-03-18T10:19:31.195Z,8.71
2023-03-18T10:22:24.708Z,8.70
2023-03-18T10:25:23.735Z,8.75
2023-03-18T10:28:13.842Z,8.82
2023-03-18T10:31:01.458Z,8.88
2023-03-18T10:33:52.194Z,8.96
2023-03-18T10:36:47.447Z,9.04
2023-03-18T10:39:18.719Z,9.12
2023-03-18T10:41:50.248Z,9.18
2023-03-18T10:44:33.087Z,9.27
2023-03-18T10:47:13.190Z,9.33
2023-03-18T10:49:47.489Z,9.33
2023-03-18T10:52:42.623Z,9.38
2023-03-18T10:55:21.871Z,9.42
2023-03-18T10:57:50.959Z,9.52
2023-03-18T11:00:33.203Z,9.50
2023-03-18T11:03:02.745Z,9.48
2023-03-18T11:05:38.093Z,9.47
2023-03-18T11:08:09.278Z,9.40
2023-03-18T11:10:47.222Z,9.49
2023-03-18T11:13:18.359Z,9.58
2023-03-18T11:15:52.742Z,9.57
2023-03-18T11:18:27.023Z,9.60
2023-03-18T11:21:01.107Z,9.64
2023-03-18T11:23:49.406Z,9.72
2023-03-18T11:26:27.667Z,9.56
2023-03-18T11:29:04.927Z,9.47
2023-03-18T11:31:34.249Z,9.56
2023-03-18T11:34:09.270Z,9.65
2023-03-18T11:36:38.582Z,9.72
2023-03-18T11:39:07.053Z,9.82
2023-03-18T11:41:38.228Z,9.87
2023-03-18T11:44:08.717Z,9.90
2023-03-18T11:47:05.598Z,9.82
2023-03-18T11:49:34.515Z,9.70
2023-03-18T11:52:24.475Z,9.64
2023-03-18T11:55:01.072Z,9.49
2023-03-18T11:57:59.350Z,9.40
2023-03-18T12:00:27.494Z,9.42
2023-03-18T12:03:23.697Z,9.48
2023-03-18T12:06:16.761Z,9.47
2023-03-18T12:09:11.740Z,9.42
2023-03-18T12:12:04.156Z,9.42
2023-03-18T12:14:54.931Z,9.46
2023-03-18T12:17:43.634Z,9.59
2023-03-18T12:20:32.045Z,9.64
2023-03-18T12:23:11.555Z,9.67
2023-03-18T12:25:55.186Z,9.63
2023-03-18T12:28:39.290Z,9.57
2023-03-18T12:31:07.285Z,9.49
2023-03-18T12:33:47.920Z,9.50
2023-03-18T12:36:26.656Z,9.55
2023-03-18T12:39:16.680Z,9.66
2023-03-18T12:42:07.079Z,9.82
2023-03-18T12:44:50.840Z,9.82
2023-03-18T12:47:25.807Z,9.82
2023-03-18T12:50:08.920Z,9.90
2023-03-18T12:52:37.601Z,9.95
2023-03-18T12:55:27.912Z,10.00
2023-03-18T12:58:14.477Z,10.02
2023-03-18T13:00:53.388Z,9.99
2023-03-18T13:03:42.964Z,10.03
2023-03-18T13:06:19.150Z,10.04
2023-03-18T13:09:19.017Z,10.06
2023-03-18T13:12:09.969Z,10.14
2023-03-18T13:14:59.897Z,10.12
2023-03-18T13:17:34.289Z,10.01
2023-03-18T13:20:11.182Z,9.92
2023-03-18T13:22:42.431Z,9.91
2023-03-18T13:25:37.823Z,9.95
2023-03-18T13:28:32.260Z,10.04
2023-03-18T13:31:15.835Z,10.06
2023-03-18T13:33:59.229Z,10.09
2023-03-18T13:36:41.923Z,10.18
2023-03-18T13:39:22.673Z,10.24
2023-03-18T13:42:22.559Z,10.23
2023-03-18T13:45:09.132Z,10.28
2023-03-18T13:47:39.315Z,10.36
2023-03-18T13:50:33.169Z,10.35
2023-03-18T13:53:03.363Z,10.37
2023-03-18T13:55:35.319Z,10.36
2023-03-18T13:58:14.100Z,10.36
2023-03-18T14:00:44.138Z,10.33
2023-03-18T14:03:20.226Z,10.25
2023-03-18T14:06:10.837Z,10.26
2023-03-18T14:08:38.988Z,10.33
2023-03-18T14:11:28.810Z,10.42
2023-03-18T14:14:03.276Z,10.53
2023-03-18T14:16:34.451Z,10.62
2023-03-18T14:19:06.195Z,10.64
2023-03-18T14:21:34.526Z,10.61
2023-03-18T14:24:16.296Z,10.54
2023-03-18T14:27:07.924Z,10.49
2023-03-18T14:29:43.331Z,10.57
2023-03-18T14:32:20.787Z,10.57
2023-03-18T14:35:02.288Z,10.59
2023-03-18T14:37:32.808Z,10.61
2023-03-18T14:40:17.823Z,10.59
2023-03-18T14:43:01.085Z,10.49
2023-03-18T14:45:40.265Z,10.41
2023-03-18T14:48:20.660Z,10.32
2023-03-18T14:50:53.736Z,10.25
2023-03-18T14:53:32.551Z,10.25
2023-03-18T14:56:03.885Z,10.34
2023-03-18T14:58:34.555Z,10.43
2023-03-18T15:01:11.084Z,10.51
2023-03-18T15:03:43.666Z,10.56
2023-03-18T15:06:19.484Z,10.51
2023-03-18T15:08:51.520Z,10.48
2023-03-18T15:11:22.962Z,10.49
2023-03-18T15:13:55.200Z,10.50
2023-03-18T15:16:25.334Z,10.49
2023-03-18T15:18:55.742Z,10.41
2023-03-18T15:21:30.302Z,10.34
2023-03-18T15:24:05.610Z,10.25
2023-03-18T15:26:39.904Z,10.21
2023-03-18T15:29:24.601Z,10.21
2023-03-18T15:31:53.608Z,10.17
2023-03-18T15:34:31.020Z,10.08
2023-03-18T15:37:02.240Z,10.02
2023-03-18T15:39:36.518Z,9.99
2023-03-18T15:42:15.634Z,9.96
2023-03-18T15:44:46.608Z,9.92
2023-03-18T15:47:19.456Z,9.87
2023-03-18T15:49:57.678Z,9.83
2023-03-18T15:52:31.368Z,9.80
2023-03-18T15:55:01.392Z,9.75
2023-03-18T15:57:47.565Z,9.69
2023-03-18T16:00:16.244Z,9.65
2023-03-18T16:02:44.325Z,9.61
2023-03-18T16:05:19.577Z,9.57
2023-03-18T16:07:49.175Z,9.52
2023-03-18T16:10:22.906Z,9.45
2023-03-18T16:13:01.280Z,9.40
2023-03-18T16:15:30.012Z,9.33
2023-03-18T16:17:58.326Z,9.26
2023-03-18T16:20:29.548Z,9.18
2023-03-18T16:22:58.938Z,9.10
2023-03-18T16:25:27.716Z,9.02
2023-03-18T16:27:59.118Z,8.94
2023-03-18T16:30:30.220Z,8.86
2023-03-18T16:32:58.896Z,8.77
2023-03-18T16:35:32.773Z,8.68
2023-03-18T16:38:01.388Z,8.59
2023-03-18T16:40:31.442Z,8.48
2023-03-18T16:43:00.037Z,8.41
2023-03-18T16:45:30.885Z,8.34
2023-03-18T16:48:05.593Z,8.26
2023-03-18T16:50:36.653Z,8.15
2023-03-18T16:53:17.744Z,8.02
2023-03-18T16:55:49.096Z,7.89
2023-03-18T16:58:23.359Z,7.76
2023-03-18T17:00:51.685Z,7.62
2023-03-18T17:03:20.093Z,7.48
2023-03-18T17:05:53.129Z,7.35
2023-03-18T17:08:22.135Z,7.23
2023-03-18T17:10:53.122Z,7.11
2023-03-18T17:13:28.562Z,6.99
2023-03-18T17:15:56.814Z,6.87
2023-03-18T17:18:25.378Z,6.75
2023-03-18T17:20:53.725Z,6.63
2023-03-18T17:23:25.476Z,6.56
2023-03-18T17:26:02.779Z,6.47
2023-03-18T17:28:37.991Z,6.37
2023-03-18T17:31:06.826Z,6.27
2023-03-18T17:33:37.205Z,6.19
2023-03-18T17:36:07.082Z,6.12
2023-03-18T17:38:35.615Z,6.05
2023-03-18T17:41:12.508Z,5.99
2023-03-18T17:43:40.629Z,5.94
2023-03-18T17:46:09.910Z,5.92
2023-03-18T17:48:38.758Z,5.91
2023-03-18T17:51:13.993Z,5.88
2023-03-18T17:53:42.998Z,5.79
2023-03-18T17:56:14.248Z,5.70
2023-03-18T17:58:49.751Z,5.64
2023-03-18T18:01:26.588Z,5.58
2023-03-18T18:03:57.394Z,5.52
2023-03-18T18:06:29.532Z,5.45
2023-03-18T18:09:00.687Z,5.38
2023-03-18T18:11:31.297Z,5.32
2023-03-18T18:14:15.057Z,5.28
2023-03-18T18:16:44.061Z,5.24
2023-03-18T18:19:12.265Z,5.18
2023-03-18T18:21:41.758Z,5.12
2023-03-18T18:24:23.307Z,5.05
2023-03-18T18:26:52.579Z,4.97
2023-03-18T18:29:23.580Z,4.92
2023-03-18T18:31:52.862Z,4.85
2023-03-18T18:34:21.433Z,4.78
2023-03-18T18:36:50.828Z,4.70
2023-03-18T18:39:19.718Z,4.61
2023-03-18T18:41:48.498Z,4.53
2023-03-18T18:44:16.558Z,4.43
2023-03-18T18:46:45.326Z,4.37
2023-03-18T18:49:23.858Z,4.31
2023-03-18T18:51:54.919Z,4.32
2023-03-18T18:54:24.632Z,4.31
2023-03-18T18:56:53.207Z,4.27
2023-03-18T18:59:26.861Z,4.22
2023-03-18T19:01:56.481Z,4.15
2023-03-18T19:04:24.743Z,4.07
2023-03-18T19:06:54.158Z,4.00
2023-03-18T19:09:24.945Z,3.92
2023-03-18T19:11:56.617Z,3.85
2023-03-18T19:14:25.543Z,3.79
2023-03-18T19:16:56.548Z,3.74
2023-03-18T19:19:27.928Z,3.69
2023-03-18T19:21:57.641Z,3.61
2023-03-18T19:24:36.070Z,3.53
2023-03-18T19:27:07.259Z,3.48
2023-03-18T19:29:37.333Z,3.46
2023-03-18T19:32:07.309Z,3.46
2023-03-18T19:34:35.513Z,3.46
2023-03-18T19:37:05.967Z,3.51
2023-03-18T19:39:34.388Z,3.56
2023-03-18T19:42:02.558Z,3.57
2023-03-18T19:44:31.000Z,3.57
2023-03-18T19:46:59.432Z,3.58
2023-03-18T19:49:35.751Z,3.58
2023-03-18T19:52:21.222Z,3.58
2023-03-18T19:54:50.368Z,3.56
2023-03-18T19:57:29.420Z,3.56
2023-03-18T19:59:59.654Z,3.57
2023-03-18T20:02:31.273Z,3.56
2023-03-18T20:05:04.550Z,3.52
2023-03-18T20:07:32.962Z,3.48
2023-03-18T20:10:01.095Z,3.44
2023-03-18T20:12:34.925Z,3.43
2023-03-18T20:15:05.115Z,3.38
2023-03-18T20:18:00.978Z,3.34
2023-03-18T20:20:31.569Z,3.23
2023-03-18T20:23:06.434Z,3.18
2023-03-18T20:25:38.890Z,3.12
2023-03-18T20:28:14.657Z,3.08
2023-03-18T20:30:43.392Z,3.03
2023-03-18T20:33:12.004Z,2.98
2023-03-18T20:35:43.245Z,2.92
2023-03-18T20:38:33.022Z,2.87
2023-03-18T20:41:01.209Z,2.85
2023-03-18T20:43:29.987Z,2.83
2023-03-18T20:45:59.867Z,2.83
2023-03-18T20:48:28.118Z,2.85
2023-03-18T20:50:56.522Z,2.88
2023-03-18T20:53:28.750Z,2.85
2023-03-18T20:55:57.321Z,2.80
2023-03-18T20:58:27.570Z,2.76
2023-03-18T21:00:55.706Z,2.70
2023-03-18T21:03:25.866Z,2.65
2023-03-18T21:05:57.853Z,2.60
2023-03-18T21:08:27.456Z,2.55
2023-03-18T21:10:59.021Z,2.52
2023-03-18T21:13:30.442Z,2.52
2023-03-18T21:16:00.253Z,2.52
2023-03-18T21:18:28.429Z,2.52
2023-03-18T21:20:57.108Z,2.53
2023-03-18T21:23:27.826Z,2.55
2023-03-18T21:25:56.823Z,2.58
2023-03-18T21:28:27.075Z,2.60
2023-03-18T21:30:58.248Z,2.63
2023-03-18T21:33:32.917Z,2.62
2023-03-18T21:36:02.366Z,2.61
2023-03-18T21:38:32.022Z,2.59
2023-03-18T21:41:02.307Z,2.55
2023-03-18T21:43:40.579Z,2.52
2023-03-18T21:46:14.653Z,2.47
2023-03-18T21:48:42.887Z,2.40
2023-03-18T21:51:37.973Z,2.33
2023-03-18T21:54:19.018Z,2.24
2023-03-18T21:56:47.211Z,2.15
2023-03-18T21:59:15.648Z,2.06
2023-03-18T22:01:44.030Z,1.98
2023-03-18T22:04:12.671Z,1.88
2023-03-18T22:06:40.925Z,1.77
2023-03-18T22:09:09.958Z,1.69
2023-03-18T22:11:38.063Z,1.62
2023-03-18T22:14:06.105Z,1.57
2023-03-18T22:16:34.366Z,1.51
2023-03-18T22:19:03.005Z,1.44
2023-03-18T22:21:31.445Z,1.38
2023-03-18T22:24:00.687Z,1.33
2023-03-18T22:26:28.780Z,1.28
2023-03-18T22:28:56.923Z,1.24
2023-03-18T22:31:26.967Z,1.22
2023-03-18T22:33:55.362Z,1.21
2023-03-18T22:36:25.477Z,1.21
2023-03-18T22:38:53.594Z,1.21
2023-03-18T22:41:25.384Z,1.21
2023-03-18T22:43:53.603Z,1.22
2023-03-18T22:46:21.838Z,1.24
2023-03-18T22:48:49.843Z,1.24
2023-03-18T22:51:29.824Z,1.22
2023-03-18T22:53:58.287Z,1.20
2023-03-18T22:56:26.661Z,1.16
2023-03-18T22:58:54.860Z,1.12
2023-03-18T23:01:29.849Z,1.07
2023-03-18T23:03:58.022Z,1.01
2023-03-18T23:06:27.366Z,0.95
2023-03-18T23:08:55.963Z,0.88
2023-03-18T23:11:24.927Z,0.82
2023-03-18T23:13:54.104Z,0.76
2023-03-18T23:16:23.874Z,0.70
2023-03-18T23:18:52.233Z,0.63
2023-03-18T23:21:23.078Z,0.58
2023-03-18T23:23:52.661Z,0.56
2023-03-18T23:26:20.989Z,0.53
2023-03-18T23:28:49.396Z,0.51
2023-03-18T23:31:18.093Z,0.49
2023-03-18T23:33:47.359Z,0.48
2023-03-18T23:36:15.964Z,0.48
2023-03-18T23:38:44.162Z,0.49
2023-03-18T23:41:12.487Z,0.48
2023-03-18T23:43:40.537Z,0.46
2023-03-18T23:46:08.808Z,0.44
2023-03-18T23:48:37.016Z,0.43
2023-03-18T23:51:05.222Z,0.43
2023-03-18T23:53:33.272Z,0.44
2023-03-18T23:56:01.316Z,0.46
2023-03-18T23:58:29.427Z,0.47
